メインページ
METAR-TAF:

METAR-TAF

空港 :

台湾桃園国際空港

台北, 台湾

緯度: 25-05N, 経度: 121-13E, 海抜: 33m

現時点の気象観測

当レポートは25分前の14:00(UTC)に作成
北東の風 15kt
気温 28°C
湿度 89%
気圧 1003 hPa
視程10km以上
高度1200ftの雲はほとんどない

METAR: RCTP 201400Z 05015KT 9999 FEW012 28/26 Q1003 NOSIG RMK A2964

時間: 22:25 (14:25 UTC)

予報

当レポートは3時間25分前の11:00(UTC)に作成
予報は20日の 12時(UTC)から 21日の 18時(UTC)まで有効
北東の風 14kt
視程10km以上
高度2000ftの雲はほとんどない
20日の 14時(UTC)から 20日の 16時(UTC)まで徐々に
北/北東の風 6kt
高度1200ftの雲はほとんどない
高度3200ftの千切れ雲あり
20日の 16時(UTC)から 20日の 22時(UTC)まで一時的に
北/北西の風 4kt
視程: 5000m
高度700ftの雲はほとんどない
高度1100ftの千切れ雲あり
高度2200ftの千切れ雲あり
にわか雨
20日の 22時(UTC)から 20日の 24時(UTC)まで徐々に
北西の風 12kt
21日の 10時(UTC)から 21日の 12時(UTC)まで徐々に
西の風 14kt

TAF: RCTP 201100Z 2012/2118 04014KT 9999 FEW020 BECMG 2014/2016 03006KT FEW012 BKN032 TEMPO 2016/2022 34004KT 5000 SHRA FEW007 BKN011 BKN022 BECMG 2022/2024 32012KT BECMG 2110/2112 26014KT

4,000以上の空港の気象観測と天気予報(METAR報とTAF報)

利用可能な観測所は地図上に黄色い丸と赤い丸で示す。

丸の上にカーソルを重ねると観測所名を参照できる。

次にクリックすると気象観測と天気予報を参照できる。

マップの切り替え:黒色「×」印の緑ボタンをクリックして拡大、「-」印の緑ボタンをクリックして縮小、緑色の三角印をクリックして隣りの地図に切り替え


METAR-TAF: